Time;durP1;ratioP1;P1;durP2;ratioP2;P2;SDS_P1;SDS_P2;PMS_P1;PMS_P2;Temp;Humidity;BMP_temperature;BMP_pressure;BME280_temperature;BME280_humidity;BME280_pressure;Samples;Min_cycle;Max_cycle;Signal;HPM_P1;HPM_P2
2023/10/31 00:01:26;;;;;;;2.70;0.63;;;10.40;99.90;;;;;;5007458;28;20082;-80
2023/10/31 00:03:52;;;;;;;5.07;0.93;;;10.40;99.90;;;;;;5000241;28;20089;-80
2023/10/31 00:06:19;;;;;;;0.20;0.20;;;10.50;99.90;;;;;;5015270;28;20050;-77
2023/10/31 00:08:44;;;;;;;2.08;0.90;;;10.50;99.90;;;;;;5009227;28;20022;-77
2023/10/31 00:11:10;;;;;;;1.00;0.35;;;10.50;99.90;;;;;;4991829;28;20341;-78
2023/10/31 00:13:36;;;;;;;3.50;0.38;;;10.60;99.90;;;;;;5010283;28;20026;-78
2023/10/31 00:16:02;;;;;;;1.27;0.40;;;10.60;99.90;;;;;;5009115;28;20360;-77
2023/10/31 00:18:27;;;;;;;0.95;0.30;;;10.60;99.90;;;;;;4992081;28;20022;-78
2023/10/31 00:20:53;;;;;;;3.22;0.38;;;10.60;99.90;;;;;;5009434;28;20038;-77
2023/10/31 00:23:18;;;;;;;0.40;0.30;;;10.60;99.90;;;;;;4991354;28;20030;-78
2023/10/31 00:25:45;;;;;;;1.48;0.55;;;10.50;99.90;;;;;;4991326;28;20026;-79
2023/10/31 00:28:11;;;;;;;6.50;0.68;;;10.50;99.90;;;;;;4989527;28;20027;-78
2023/10/31 00:30:36;;;;;;;1.40;0.80;;;10.60;99.90;;;;;;4990757;28;20112;-78
2023/10/31 00:33:02;;;;;;;1.40;0.20;;;10.60;99.90;;;;;;4989977;28;20030;-78
2023/10/31 00:35:28;;;;;;;2.28;0.30;;;10.60;99.90;;;;;;5008517;28;20030;-78
2023/10/31 00:37:54;;;;;;;3.95;0.80;;;10.50;99.90;;;;;;4991106;28;20137;-78
2023/10/31 00:40:19;;;;;;;1.70;0.30;;;10.50;99.90;;;;;;4991064;28;20210;-76
2023/10/31 00:42:45;;;;;;;1.27;0.30;;;10.40;99.90;;;;;;4989302;28;20072;-78
2023/10/31 00:45:11;;;;;;;1.35;0.38;;;10.40;99.90;;;;;;5007317;28;20046;-78
2023/10/31 00:47:37;;;;;;;0.52;0.30;;;10.30;99.90;;;;;;5008189;28;20032;-78
2023/10/31 00:50:03;;;;;;;0.60;0.52;;;10.30;99.90;;;;;;4990012;28;20089;-79
2023/10/31 00:52:28;;;;;;;0.65;0.40;;;10.20;99.90;;;;;;5008588;28;20207;-77
2023/10/31 00:54:54;;;;;;;0.40;0.40;;;10.20;99.90;;;;;;4991071;28;20018;-78
2023/10/31 00:57:20;;;;;;;2.55;1.08;;;10.20;99.90;;;;;;4990390;28;20093;-78
2023/10/31 00:59:45;;;;;;;1.13;0.32;;;10.20;99.90;;;;;;5008753;28;20065;-78
2023/10/31 01:02:12;;;;;;;1.30;0.38;;;10.20;99.90;;;;;;4990946;28;20140;-78
2023/10/31 01:04:38;;;;;;;0.40;0.40;;;10.20;99.90;;;;;;4997333;28;20026;-79
2023/10/31 01:07:04;;;;;;;1.50;1.25;;;10.20;99.90;;;;;;5000064;28;20023;-78
2023/10/31 01:09:29;;;;;;;1.00;0.45;;;10.20;99.90;;;;;;5017245;28;20018;-77
2023/10/31 01:11:55;;;;;;;1.10;0.52;;;10.20;99.90;;;;;;5018223;28;20018;-79
2023/10/31 01:14:21;;;;;;;0.40;0.40;;;10.30;99.90;;;;;;5002292;28;20019;-80
2023/10/31 01:16:46;;;;;;;2.58;0.50;;;10.30;99.90;;;;;;4999122;28;20022;-79
2023/10/31 01:19:12;;;;;;;6.22;1.13;;;10.40;99.90;;;;;;4995644;28;20029;-78
2023/10/31 01:21:41;;;;;;;1.15;0.40;;;10.30;99.90;;;;;;5016169;28;20037;-77
2023/10/31 01:24:12;;;;;;;1.45;0.25;;;10.30;99.90;;;;;;5015031;28;20030;-76
2023/10/31 01:26:38;;;;;;;2.78;0.35;;;10.30;99.90;;;;;;5013011;28;20030;-79
2023/10/31 01:29:03;;;;;;;1.75;0.50;;;10.40;99.90;;;;;;4996767;28;20079;-79
2023/10/31 01:35:12;;;;;;;1.92;0.50;;;10.40;99.90;;;;;;4973858;29;20067;-77
2023/10/31 01:37:38;;;;;;;5.13;0.50;;;10.40;99.90;;;;;;4958652;28;20066;-79
2023/10/31 01:40:07;;;;;;;0.57;0.38;;;10.40;99.90;;;;;;4976057;28;20010;-78
2023/10/31 01:42:33;;;;;;;0.50;0.50;;;10.40;99.90;;;;;;4958567;29;20039;-77
2023/10/31 01:44:58;;;;;;;5.43;0.70;;;10.40;99.90;;;;;;4967309;29;20041;-78
2023/10/31 01:47:24;;;;;;;1.27;0.20;;;10.40;99.90;;;;;;4959222;29;20535;-78
2023/10/31 01:49:51;;;;;;;1.52;0.32;;;10.40;99.90;;;;;;4946691;29;20047;-78
2023/10/31 01:52:17;;;;;;;1.55;0.45;;;10.40;99.90;;;;;;4956287;29;20035;-77
2023/10/31 01:54:44;;;;;;;2.50;0.40;;;10.30;99.90;;;;;;4960705;29;20013;-77
2023/10/31 01:57:10;;;;;;;1.98;0.88;;;10.30;99.90;;;;;;4961787;29;20039;-78
2023/10/31 01:59:36;;;;;;;1.85;0.50;;;10.30;99.90;;;;;;4976703;28;20515;-78
2023/10/31 02:02:02;;;;;;;1.42;0.50;;;10.20;99.90;;;;;;4949922;28;20026;-77
2023/10/31 02:04:28;;;;;;;3.72;0.98;;;10.20;99.90;;;;;;4981921;28;20441;-78
2023/10/31 02:06:54;;;;;;;2.45;0.52;;;10.10;99.90;;;;;;4981377;28;20116;-78
2023/10/31 02:09:24;;;;;;;5.05;1.00;;;10.10;99.90;;;;;;4982816;28;20026;-77
2023/10/31 02:11:53;;;;;;;1.45;0.52;;;10.10;99.90;;;;;;4981320;28;20040;-78
2023/10/31 02:14:19;;;;;;;1.95;0.47;;;10.10;99.90;;;;;;4981263;28;20018;-78
2023/10/31 02:16:44;;;;;;;2.78;0.73;;;10.00;99.90;;;;;;4980732;28;20372;-78
2023/10/31 02:19:11;;;;;;;2.72;0.80;;;10.00;99.90;;;;;;4982650;28;20551;-78
2023/10/31 02:21:41;;;;;;;2.40;0.52;;;10.00;99.90;;;;;;5000273;28;20030;-78
2023/10/31 02:24:06;;;;;;;1.23;0.60;;;9.90;99.90;;;;;;4982864;28;20022;-77
2023/10/31 02:26:34;;;;;;;2.35;0.60;;;9.90;99.90;;;;;;4982154;28;20269;-78
2023/10/31 02:29:00;;;;;;;5.40;1.13;;;9.80;99.90;;;;;;4981213;28;20061;-78
2023/10/31 02:31:26;;;;;;;4.53;0.50;;;9.80;99.90;;;;;;4998404;28;20215;-77
2023/10/31 02:33:52;;;;;;;2.78;0.73;;;9.80;99.90;;;;;;4998292;28;20101;-78
2023/10/31 02:36:18;;;;;;;2.58;0.90;;;9.80;99.90;;;;;;4985240;28;20033;-80
2023/10/31 02:38:44;;;;;;;1.73;0.73;;;9.80;99.90;;;;;;5019034;28;20020;-78
2023/10/31 02:41:10;;;;;;;3.25;0.55;;;9.70;99.90;;;;;;5018890;28;20006;-78
2023/10/31 02:43:41;;;;;;;0.57;0.50;;;9.80;99.90;;;;;;5001988;28;20017;-78
2023/10/31 02:46:08;;;;;;;4.57;0.85;;;9.80;99.90;;;;;;5002424;28;20045;-77
2023/10/31 02:48:39;;;;;;;0.82;0.40;;;9.80;99.90;;;;;;5002783;28;20058;-78
2023/10/31 02:51:26;;;;;;;2.47;0.65;;;9.80;99.90;;;;;;5002916;28;20033;-78
2023/10/31 02:54:04;;;;;;;1.25;1.00;;;9.80;99.90;;;;;;5002455;28;20046;-79
2023/10/31 02:56:30;;;;;;;5.47;0.63;;;9.80;99.90;;;;;;5018260;28;20031;-78
2023/10/31 02:58:57;;;;;;;1.95;0.68;;;9.90;99.90;;;;;;4999532;28;20105;-78
2023/10/31 03:01:30;;;;;;;2.72;0.70;;;9.90;99.90;;;;;;4999033;28;20030;-78
2023/10/31 03:03:56;;;;;;;2.17;0.65;;;9.90;99.90;;;;;;4981889;28;20026;-77
2023/10/31 03:06:22;;;;;;;3.72;0.60;;;9.80;99.90;;;;;;4981287;28;20022;-78
2023/10/31 03:08:47;;;;;;;1.65;0.60;;;9.80;99.90;;;;;;4980993;28;20026;-78
2023/10/31 03:11:26;;;;;;;0.60;0.57;;;9.70;99.90;;;;;;4981407;28;20049;-78
2023/10/31 03:13:56;;;;;;;2.40;0.80;;;9.70;99.90;;;;;;4998027;28;20031;-78
2023/10/31 03:16:22;;;;;;;4.25;0.75;;;9.70;99.90;;;;;;4980857;28;20495;-77
2023/10/31 03:18:48;;;;;;;4.45;1.10;;;9.70;99.90;;;;;;4998699;28;20033;-78
2023/10/31 03:21:14;;;;;;;2.25;0.60;;;9.70;99.90;;;;;;4980188;28;20026;-78
2023/10/31 03:23:46;;;;;;;1.08;0.57;;;9.70;99.90;;;;;;4980583;28;20026;-78
2023/10/31 03:26:11;;;;;;;2.92;1.00;;;9.60;99.90;;;;;;4997585;28;20030;-78
2023/10/31 03:28:37;;;;;;;2.45;0.70;;;9.60;99.90;;;;;;4981729;28;20033;-78
2023/10/31 03:31:03;;;;;;;1.98;0.60;;;9.50;99.90;;;;;;4983776;28;20030;-77
2023/10/31 03:33:35;;;;;;;1.08;0.40;;;9.60;99.90;;;;;;4994965;28;20155;-79
2023/10/31 03:36:01;;;;;;;3.30;0.73;;;9.60;99.90;;;;;;4983460;28;20031;-78
2023/10/31 03:38:27;;;;;;;1.52;0.90;;;9.60;99.90;;;;;;4995653;28;20050;-78
2023/10/31 03:40:53;;;;;;;3.40;0.60;;;9.60;99.90;;;;;;4998909;28;20031;-78
2023/10/31 03:43:19;;;;;;;3.17;0.52;;;9.50;99.90;;;;;;5003699;28;20030;-78
2023/10/31 03:45:47;;;;;;;2.03;0.55;;;9.50;99.90;;;;;;5003719;28;20057;-78
2023/10/31 03:48:35;;;;;;;7.40;1.33;;;9.50;99.90;;;;;;5002664;28;20032;-78
2023/10/31 03:51:01;;;;;;;1.77;0.50;;;9.40;99.90;;;;;;5002875;28;20038;-79
2023/10/31 03:53:26;;;;;;;7.00;1.48;;;9.30;99.90;;;;;;5003030;28;20026;-77
2023/10/31 03:55:52;;;;;;;3.92;0.75;;;9.20;99.90;;;;;;4985499;28;20432;-77
2023/10/31 03:58:18;;;;;;;2.05;0.52;;;9.10;99.90;;;;;;4984395;28;20030;-78
2023/10/31 04:00:43;;;;;;;2.65;0.70;;;8.90;99.90;;;;;;5003229;28;20535;-77
2023/10/31 04:03:09;;;;;;;2.50;0.40;;;8.90;99.90;;;;;;4984931;28;20033;-77
2023/10/31 04:05:34;;;;;;;1.95;0.63;;;8.80;99.90;;;;;;4983842;28;20030;-77
2023/10/31 04:08:01;;;;;;;3.50;0.82;;;8.80;99.90;;;;;;4982902;28;20030;-77
2023/10/31 04:10:27;;;;;;;1.60;0.85;;;8.70;99.90;;;;;;4983696;28;20116;-78
2023/10/31 04:12:52;;;;;;;2.55;0.73;;;8.70;99.90;;;;;;4982297;28;20068;-77
2023/10/31 04:15:18;;;;;;;1.33;0.82;;;8.80;99.90;;;;;;4982767;28;20022;-78
2023/10/31 04:17:44;;;;;;;10.70;0.85;;;8.90;99.90;;;;;;4982740;28;20551;-77
2023/10/31 04:20:11;;;;;;;0.80;0.80;;;8.80;99.90;;;;;;4982451;28;20406;-78
2023/10/31 04:22:38;;;;;;;3.42;0.60;;;8.90;99.90;;;;;;4982954;28;20034;-78
2023/10/31 04:25:04;;;;;;;6.72;0.95;;;8.90;99.90;;;;;;4983903;28;20062;-78
2023/10/31 04:27:30;;;;;;;0.65;0.65;;;8.80;99.90;;;;;;5001535;28;20049;-78
2023/10/31 04:29:56;;;;;;;3.15;0.95;;;8.90;99.90;;;;;;4983662;28;20550;-77
2023/10/31 04:32:21;;;;;;;2.60;0.70;;;8.90;99.90;;;;;;4983374;28;20052;-77
2023/10/31 04:34:47;;;;;;;1.90;0.60;;;8.90;99.90;;;;;;4983359;28;20061;-78
2023/10/31 04:37:12;;;;;;;0.93;0.68;;;9.10;99.90;;;;;;4983024;28;20037;-78
2023/10/31 04:39:38;;;;;;;3.78;0.73;;;9.10;99.90;;;;;;5000424;28;20034;-77
2023/10/31 04:42:04;;;;;;;2.03;0.40;;;9.10;99.90;;;;;;4966049;28;20034;-78
2023/10/31 04:44:30;;;;;;;3.72;0.70;;;9.10;99.90;;;;;;4981913;28;20029;-77
2023/10/31 04:46:55;;;;;;;4.10;0.57;;;9.20;99.90;;;;;;4981946;28;20023;-77
2023/10/31 04:49:21;;;;;;;1.27;0.50;;;9.20;99.90;;;;;;4999477;28;20108;-76
2023/10/31 04:51:48;;;;;;;2.85;0.57;;;9.20;99.90;;;;;;4999750;28;20085;-77
2023/10/31 04:54:14;;;;;;;6.28;0.73;;;9.30;99.90;;;;;;4982100;28;20026;-77
2023/10/31 04:56:42;;;;;;;2.30;0.57;;;9.40;99.90;;;;;;5000658;28;20054;-77
2023/10/31 04:59:10;;;;;;;6.75;1.15;;;9.40;99.90;;;;;;4984902;28;20030;-77
2023/10/31 05:01:36;;;;;;;3.50;0.80;;;9.40;99.90;;;;;;5002916;28;20379;-77
2023/10/31 05:04:02;;;;;;;1.25;0.75;;;9.50;99.90;;;;;;4981745;28;20030;-78
2023/10/31 05:06:28;;;;;;;3.90;0.93;;;9.50;99.90;;;;;;4981826;28;20030;-78
2023/10/31 05:08:53;;;;;;;1.50;0.60;;;9.60;99.90;;;;;;4981514;28;20018;-78
2023/10/31 05:11:19;;;;;;;3.28;0.70;;;9.70;99.90;;;;;;4998709;28;20403;-78
2023/10/31 05:13:47;;;;;;;3.95;0.90;;;9.70;99.90;;;;;;4998956;28;20026;-77
2023/10/31 05:16:12;;;;;;;3.00;0.55;;;9.80;99.90;;;;;;4981586;28;20030;-77
2023/10/31 05:18:38;;;;;;;2.65;0.75;;;9.90;99.90;;;;;;4998979;28;20033;-78
2023/10/31 05:21:05;;;;;;;8.30;0.98;;;9.80;99.90;;;;;;4999168;28;20486;-77
2023/10/31 05:23:30;;;;;;;7.95;1.85;;;9.80;99.90;;;;;;4980501;28;20034;-78
2023/10/31 05:25:56;;;;;;;2.95;0.50;;;9.90;99.90;;;;;;4980681;28;20422;-77
2023/10/31 05:28:23;;;;;;;2.05;0.63;;;9.80;99.90;;;;;;4998020;28;20023;-77
2023/10/31 05:30:49;;;;;;;2.90;0.70;;;9.80;99.90;;;;;;4980499;28;20034;-77
2023/10/31 05:33:15;;;;;;;5.43;0.60;;;9.80;99.90;;;;;;4997965;28;20023;-77
2023/10/31 05:35:41;;;;;;;1.88;0.85;;;9.70;99.90;;;;;;4981938;28;20030;-78
2023/10/31 05:38:07;;;;;;;4.00;0.75;;;9.70;99.90;;;;;;4999687;28;20411;-77
2023/10/31 05:40:35;;;;;;;2.72;0.90;;;9.60;99.90;;;;;;4998890;28;20054;-78
2023/10/31 05:43:01;;;;;;;1.55;0.70;;;9.60;99.90;;;;;;4981373;28;20089;-77
2023/10/31 05:45:27;;;;;;;0.52;0.50;;;9.50;99.90;;;;;;4981573;28;20027;-77
2023/10/31 05:47:52;;;;;;;1.20;0.95;;;9.40;99.90;;;;;;4982510;28;20027;-77
2023/10/31 05:50:18;;;;;;;11.27;1.30;;;9.30;99.90;;;;;;4981499;28;20046;-77
2023/10/31 05:52:44;;;;;;;3.45;0.88;;;9.30;99.90;;;;;;4999619;28;20034;-77
2023/10/31 05:55:09;;;;;;;1.65;0.52;;;9.20;99.90;;;;;;4980814;28;20019;-78
2023/10/31 05:57:35;;;;;;;2.97;1.27;;;9.10;99.90;;;;;;4980464;28;20045;-77
2023/10/31 06:00:01;;;;;;;2.60;0.70;;;9.10;99.90;;;;;;4981158;28;20041;-77
2023/10/31 06:02:26;;;;;;;2.65;0.60;;;9.10;99.90;;;;;;4981752;28;20022;-78
2023/10/31 06:04:52;;;;;;;2.05;0.70;;;9.00;99.90;;;;;;4985414;28;20054;-79
2023/10/31 06:07:17;;;;;;;4.70;1.00;;;9.00;99.90;;;;;;4987296;28;20026;-78
2023/10/31 06:09:43;;;;;;;6.20;1.00;;;9.10;99.90;;;;;;4999002;28;20022;-77
2023/10/31 06:12:09;;;;;;;0.70;0.40;;;9.10;99.90;;;;;;4980732;28;20041;-78
2023/10/31 06:14:35;;;;;;;5.47;0.70;;;9.00;99.90;;;;;;4998466;28;20444;-76
2023/10/31 06:17:01;;;;;;;5.88;1.58;;;9.10;99.90;;;;;;4980374;28;20046;-76
2023/10/31 06:19:27;;;;;;;3.22;1.35;;;9.10;99.90;;;;;;4980231;28;20019;-77
2023/10/31 06:21:53;;;;;;;2.17;0.85;;;9.10;99.90;;;;;;4979869;28;20034;-77
2023/10/31 06:24:18;;;;;;;2.45;0.50;;;9.10;99.90;;;;;;4998030;28;20022;-77
2023/10/31 06:26:44;;;;;;;4.70;0.57;;;9.10;99.90;;;;;;4982018;28;20026;-77
2023/10/31 06:29:09;;;;;;;6.32;0.80;;;9.20;99.90;;;;;;4982052;28;20069;-77
2023/10/31 06:31:36;;;;;;;2.53;0.88;;;9.20;99.90;;;;;;4979059;28;20391;-77
2023/10/31 06:34:02;;;;;;;1.48;0.93;;;9.20;99.90;;;;;;4980865;28;20118;-77
2023/10/31 06:36:28;;;;;;;3.40;0.90;;;9.20;99.90;;;;;;4982371;28;20121;-77
2023/10/31 06:38:54;;;;;;;1.85;0.57;;;9.20;99.90;;;;;;4981732;28;20069;-77
2023/10/31 06:41:21;;;;;;;3.00;0.50;;;9.30;99.90;;;;;;4998554;28;20498;-77
2023/10/31 06:43:46;;;;;;;3.75;0.55;;;9.30;99.90;;;;;;4998341;28;20030;-77
2023/10/31 06:46:15;;;;;;;4.15;1.50;;;9.40;99.90;;;;;;4979079;28;20537;-77
2023/10/31 06:48:40;;;;;;;3.13;0.98;;;9.40;99.90;;;;;;4978819;28;20046;-77
2023/10/31 06:51:07;;;;;;;3.83;1.13;;;9.40;99.90;;;;;;4997263;28;20467;-77
2023/10/31 06:53:33;;;;;;;4.30;0.98;;;9.40;99.90;;;;;;4996564;28;20022;-77
2023/10/31 06:55:59;;;;;;;3.15;0.80;;;9.40;99.90;;;;;;4980364;28;20052;-77
2023/10/31 06:58:24;;;;;;;1.40;0.90;;;9.50;99.90;;;;;;4979875;28;20446;-77
2023/10/31 07:00:50;;;;;;;2.00;0.80;;;9.50;99.90;;;;;;4979769;28;20085;-77
2023/10/31 07:03:17;;;;;;;1.70;1.13;;;9.50;99.90;;;;;;4997206;28;20030;-77
2023/10/31 07:05:42;;;;;;;2.38;1.73;;;9.60;99.90;;;;;;4996813;28;20393;-77
2023/10/31 07:08:09;;;;;;;3.97;1.10;;;9.60;99.90;;;;;;4979521;28;20022;-77
2023/10/31 07:10:34;;;;;;;3.00;1.38;;;9.70;99.90;;;;;;4979402;28;20057;-77
2023/10/31 07:13:00;;;;;;;2.30;0.82;;;9.70;99.90;;;;;;4979604;28;20030;-77
2023/10/31 07:15:26;;;;;;;1.90;0.90;;;9.70;99.90;;;;;;4997392;28;20022;-76
2023/10/31 07:17:51;;;;;;;2.17;1.00;;;9.70;99.90;;;;;;4982397;28;20034;-77
2023/10/31 07:20:17;;;;;;;2.53;0.90;;;9.70;99.90;;;;;;5000667;28;20023;-77
2023/10/31 07:22:44;;;;;;;1.90;1.00;;;9.70;99.90;;;;;;5001717;28;20030;-77
2023/10/31 07:25:10;;;;;;;1.13;1.08;;;9.80;99.90;;;;;;4983348;28;20535;-77
2023/10/31 07:27:36;;;;;;;7.88;2.08;;;9.80;99.90;;;;;;5000865;28;20081;-77
2023/10/31 07:30:04;;;;;;;2.05;1.08;;;9.90;99.90;;;;;;4983302;28;20026;-77
2023/10/31 07:32:30;;;;;;;4.03;0.98;;;9.90;99.90;;;;;;4982892;28;20065;-77
2023/10/31 07:34:55;;;;;;;3.42;0.82;;;9.90;99.90;;;;;;5000915;28;20030;-76
2023/10/31 07:37:21;;;;;;;2.92;0.90;;;9.90;99.90;;;;;;4983011;28;20034;-77
2023/10/31 07:39:48;;;;;;;0.55;0.50;;;9.90;99.90;;;;;;5000862;28;20027;-77
2023/10/31 07:42:14;;;;;;;11.07;1.38;;;10.00;99.90;;;;;;4983630;28;20030;-78
2023/10/31 07:44:41;;;;;;;3.55;0.43;;;10.00;99.90;;;;;;4982705;28;20470;-77
2023/10/31 07:47:09;;;;;;;2.33;0.88;;;10.00;99.90;;;;;;4984367;28;20039;-78
2023/10/31 07:49:35;;;;;;;1.95;0.47;;;10.00;99.90;;;;;;5001657;28;20081;-78
2023/10/31 07:52:00;;;;;;;0.73;0.63;;;10.00;99.90;;;;;;5001012;28;20030;-77
2023/10/31 07:54:26;;;;;;;2.72;0.50;;;10.10;99.90;;;;;;5000339;28;20459;-77
2023/10/31 07:56:52;;;;;;;1.73;1.00;;;10.10;99.90;;;;;;4982335;28;20451;-77
2023/10/31 07:59:18;;;;;;;1.00;0.40;;;10.10;99.90;;;;;;4982453;28;20030;-77
2023/10/31 08:01:43;;;;;;;2.40;0.70;;;10.20;99.90;;;;;;5000131;28;20035;-77
2023/10/31 08:04:09;;;;;;;3.85;1.02;;;10.20;99.90;;;;;;4982385;28;20053;-77
2023/10/31 08:06:35;;;;;;;0.40;0.40;;;10.20;99.90;;;;;;4965863;28;20053;-77
2023/10/31 08:09:01;;;;;;;0.80;0.43;;;10.10;99.90;;;;;;5001207;28;20510;-77
2023/10/31 08:11:27;;;;;;;1.30;0.95;;;10.10;99.90;;;;;;4983254;28;20038;-77
2023/10/31 08:13:53;;;;;;;1.83;0.50;;;10.10;99.90;;;;;;4984097;28;20121;-77
2023/10/31 08:16:19;;;;;;;0.32;0.30;;;10.20;99.90;;;;;;4983837;28;20057;-77
2023/10/31 08:18:45;;;;;;;0.65;0.50;;;10.20;99.90;;;;;;4983829;28;20026;-77
2023/10/31 08:21:11;;;;;;;1.65;0.45;;;10.30;99.90;;;;;;4983022;28;20144;-77
2023/10/31 08:23:37;;;;;;;1.08;0.57;;;10.40;99.90;;;;;;4982059;28;20049;-77
2023/10/31 08:26:03;;;;;;;0.60;0.60;;;10.50;99.90;;;;;;4999099;28;20490;-77
2023/10/31 08:28:30;;;;;;;0.88;0.82;;;10.60;99.90;;;;;;4999500;28;20031;-77
2023/10/31 08:30:55;;;;;;;1.75;0.50;;;10.60;99.90;;;;;;4982758;28;20479;-77
2023/10/31 08:33:21;;;;;;;1.13;0.32;;;10.70;99.90;;;;;;4981282;28;20117;-77
2023/10/31 08:35:47;;;;;;;1.15;0.50;;;10.80;99.90;;;;;;4999856;28;20027;-77
2023/10/31 08:38:13;;;;;;;2.03;0.30;;;10.90;99.90;;;;;;4983514;28;20018;-77
2023/10/31 08:40:39;;;;;;;1.02;0.60;;;10.90;99.90;;;;;;4999854;28;20497;-77
2023/10/31 08:43:06;;;;;;;7.88;1.20;;;11.10;99.90;;;;;;5002954;28;20026;-77
2023/10/31 08:45:33;;;;;;;1.77;0.30;;;11.10;99.90;;;;;;4991623;28;20380;-77
2023/10/31 08:47:58;;;;;;;1.95;0.77;;;11.10;99.90;;;;;;5009272;28;20010;-77
2023/10/31 08:50:24;;;;;;;0.45;0.45;;;11.10;99.90;;;;;;4992294;28;20380;-77
2023/10/31 08:52:50;;;;;;;2.65;1.13;;;11.10;99.90;;;;;;5009392;28;20098;-76
2023/10/31 08:55:16;;;;;;;0.80;0.43;;;11.20;99.90;;;;;;5005669;28;20093;-77
2023/10/31 08:57:41;;;;;;;0.20;0.20;;;11.30;99.90;;;;;;5005131;28;20026;-77
2023/10/31 09:00:07;;;;;;;1.70;0.63;;;11.50;99.90;;;;;;5006201;28;20023;-77
2023/10/31 09:02:33;;;;;;;0.77;0.40;;;11.60;99.90;;;;;;4989211;28;20034;-77
2023/10/31 09:04:59;;;;;;;2.40;0.57;;;11.70;99.90;;;;;;4988030;28;20060;-77
2023/10/31 09:07:25;;;;;;;0.70;0.55;;;11.80;99.90;;;;;;5007670;28;20014;-77
2023/10/31 09:09:50;;;;;;;1.25;0.50;;;11.80;99.90;;;;;;5003175;28;20022;-77
2023/10/31 09:12:16;;;;;;;0.38;0.30;;;11.80;99.90;;;;;;5007060;28;20105;-77
2023/10/31 09:14:43;;;;;;;3.50;0.40;;;11.90;99.90;;;;;;5008069;28;20014;-78
2023/10/31 09:17:08;;;;;;;1.98;0.50;;;11.90;99.90;;;;;;4991278;28;20034;-77
2023/10/31 09:19:35;;;;;;;3.33;0.40;;;12.00;99.90;;;;;;5004900;28;20030;-78
2023/10/31 09:22:00;;;;;;;1.05;0.50;;;12.10;99.90;;;;;;4983028;28;20033;-77
2023/10/31 09:24:26;;;;;;;1.20;0.30;;;12.00;99.90;;;;;;4988694;28;20019;-77
2023/10/31 09:26:52;;;;;;;0.57;0.30;;;11.90;99.90;;;;;;5001616;28;20026;-77
2023/10/31 09:29:17;;;;;;;1.02;0.25;;;11.90;99.90;;;;;;4990139;28;20022;-76
2023/10/31 09:31:43;;;;;;;0.40;0.20;;;12.00;99.90;;;;;;5001638;28;20030;-77
2023/10/31 09:34:09;;;;;;;0.93;0.15;;;12.00;99.90;;;;;;4983952;28;20318;-77
2023/10/31 09:36:35;;;;;;;1.35;0.38;;;12.10;99.90;;;;;;5004787;28;20023;-77
2023/10/31 09:39:01;;;;;;;0.32;0.30;;;12.30;99.90;;;;;;5000794;28;20037;-77
2023/10/31 09:41:27;;;;;;;1.40;0.75;;;12.40;99.90;;;;;;4980385;28;20023;-77
2023/10/31 09:43:53;;;;;;;0.30;0.30;;;12.50;99.90;;;;;;4979977;28;20041;-77
2023/10/31 09:46:19;;;;;;;1.77;0.55;;;12.60;99.90;;;;;;4998134;28;20018;-77
2023/10/31 09:48:46;;;;;;;0.43;0.22;;;12.70;99.90;;;;;;4998699;28;20050;-77
2023/10/31 09:51:12;;;;;;;0.15;0.15;;;12.70;99.90;;;;;;4979987;28;20412;-77
2023/10/31 09:53:39;;;;;;;0.25;0.25;;;12.80;99.90;;;;;;4980449;28;20033;-77
2023/10/31 09:56:08;;;;;;;0.57;0.20;;;12.80;99.90;;;;;;4998800;28;20026;-77
2023/10/31 09:58:35;;;;;;;0.10;0.10;;;13.00;99.90;;;;;;4999707;28;20019;-77
2023/10/31 10:01:01;;;;;;;0.10;0.10;;;13.10;99.90;;;;;;4980212;28;20065;-77
2023/10/31 10:03:27;;;;;;;1.85;0.30;;;13.10;99.90;;;;;;4980485;28;20022;-77
2023/10/31 10:05:53;;;;;;;1.65;0.22;;;13.10;99.90;;;;;;4981305;28;20030;-77
2023/10/31 10:08:20;;;;;;;0.20;0.20;;;13.40;99.90;;;;;;4982762;28;20398;-77
2023/10/31 10:10:47;;;;;;;4.30;0.50;;;13.60;99.90;;;;;;4980384;28;20030;-77
2023/10/31 10:13:13;;;;;;;1.00;0.20;;;13.70;99.90;;;;;;4997708;28;20027;-77
2023/10/31 10:15:49;;;;;;;0.80;0.38;;;13.80;99.90;;;;;;4999073;28;20452;-77
2023/10/31 10:18:28;;;;;;;0.50;0.50;;;13.70;99.90;;;;;;4982580;28;20026;-76
2023/10/31 10:20:56;;;;;;;4.78;0.52;;;13.80;99.90;;;;;;4998017;28;20037;-77
2023/10/31 10:23:22;;;;;;;2.03;0.40;;;13.70;99.90;;;;;;4998081;28;20042;-78
2023/10/31 10:25:51;;;;;;;0.40;0.40;;;13.80;99.90;;;;;;4982174;28;20022;-77
2023/10/31 10:28:19;;;;;;;;;;;13.80;99.90;;;;;;4980853;28;20081;-76
2023/10/31 10:30:47;;;;;;;1.55;0.25;;;13.80;99.90;;;;;;4980840;28;20354;-78
2023/10/31 10:33:12;;;;;;;0.10;0.10;;;13.70;99.90;;;;;;4997595;28;20052;-77
2023/10/31 10:35:38;;;;;;;0.80;0.52;;;13.70;99.90;;;;;;4978992;28;20088;-77
2023/10/31 10:38:10;;;;;;;0.28;0.10;;;13.80;99.90;;;;;;4997430;28;20097;-76
2023/10/31 10:40:37;;;;;;;0.20;0.20;;;13.80;99.90;;;;;;4979179;28;20022;-77
2023/10/31 10:43:08;;;;;;;0.10;0.10;;;14.00;99.90;;;;;;4998945;28;20410;-77
2023/10/31 10:45:36;;;;;;;0.43;0.43;;;14.10;99.90;;;;;;4996935;28;20018;-78
2023/10/31 10:48:10;;;;;;;0.30;0.30;;;14.00;99.90;;;;;;5000133;28;20038;-78
2023/10/31 10:50:41;;;;;;;1.58;0.40;;;14.20;99.90;;;;;;5000518;28;20269;-77
2023/10/31 10:53:33;;;;;;;0.63;0.10;;;14.30;99.90;;;;;;5001022;28;20390;-78
2023/10/31 10:56:03;;;;;;;0.55;0.55;;;14.50;99.90;;;;;;4984470;28;20026;-78
2023/10/31 10:58:50;;;;;;;0.75;0.60;;;14.50;99.90;;;;;;4998799;28;20026;-77
2023/10/31 11:01:18;;;;;;;0.22;0.20;;;14.40;99.90;;;;;;4982624;28;20046;-78
2023/10/31 11:03:46;;;;;;;0.00;0.00;;;14.40;99.90;;;;;;4982819;28;20065;-77
2023/10/31 11:06:13;;;;;;;0.20;0.20;;;14.50;99.90;;;;;;4981632;28;20026;-79
2023/10/31 11:08:39;;;;;;;0.43;0.30;;;14.50;99.90;;;;;;4980705;28;20474;-78
2023/10/31 11:11:06;;;;;;;0.13;0.13;;;14.60;99.90;;;;;;4996738;28;20030;-77
2023/10/31 11:13:32;;;;;;;1.58;0.30;;;14.80;99.90;;;;;;4984607;28;20097;-77
2023/10/31 11:16:06;;;;;;;1.80;0.30;;;14.90;99.90;;;;;;5001426;28;20034;-79
2023/10/31 11:18:32;;;;;;;0.80;0.20;;;15.10;99.90;;;;;;4982845;28;20030;-78
2023/10/31 11:20:58;;;;;;;0.30;0.30;;;15.10;99.90;;;;;;4981910;28;20080;-78
2023/10/31 11:23:24;;;;;;;1.65;0.10;;;15.00;99.90;;;;;;5000332;28;20022;-78
2023/10/31 11:25:53;;;;;;;0.10;0.10;;;14.90;99.90;;;;;;4981359;28;20026;-78
2023/10/31 11:28:19;;;;;;;0.63;0.20;;;14.70;99.90;;;;;;4981896;28;20549;-78
2023/10/31 11:30:48;;;;;;;0.40;0.20;;;14.80;99.90;;;;;;4981200;28;20037;-78
2023/10/31 11:33:15;;;;;;;0.32;0.10;;;14.80;99.90;;;;;;4996995;28;20104;-78
2023/10/31 11:35:41;;;;;;;0.30;0.10;;;14.60;99.90;;;;;;4978532;28;20125;-78
2023/10/31 11:38:09;;;;;;;0.00;0.00;;;14.30;99.90;;;;;;4995968;28;20030;-78
2023/10/31 11:40:59;;;;;;;0.10;0.10;;;14.10;99.90;;;;;;4978732;28;20057;-77
2023/10/31 11:43:25;;;;;;;0.00;0.00;;;13.70;99.90;;;;;;4995393;28;20490;-78
2023/10/31 11:45:54;;;;;;;0.30;0.20;;;13.80;99.90;;;;;;4977843;28;20023;-77
2023/10/31 11:48:51;;;;;;;0.00;0.00;;;13.80;99.90;;;;;;4978336;28;20482;-78
2023/10/31 11:51:17;;;;;;;0.10;0.10;;;13.80;99.90;;;;;;4980066;28;20037;-78
2023/10/31 11:53:43;;;;;;;0.20;0.20;;;13.60;99.90;;;;;;4998114;28;20418;-79
2023/10/31 11:56:29;;;;;;;0.20;0.10;;;13.30;99.90;;;;;;4982168;28;20030;-79
2023/10/31 11:59:13;;;;;;;0.15;0.15;;;12.60;99.90;;;;;;4981313;28;20538;-79
2023/10/31 12:01:46;;;;;;;0.35;0.00;;;12.20;99.90;;;;;;4981660;28;20037;-78
2023/10/31 12:04:22;;;;;;;0.00;0.00;;;11.90;99.90;;;;;;4983133;28;20029;-78
2023/10/31 12:06:58;;;;;;;0.20;0.20;;;11.80;99.90;;;;;;4986079;28;20034;-79
2023/10/31 12:09:23;;;;;;;0.10;0.10;;;11.90;99.90;;;;;;4984815;28;20022;-78
2023/10/31 12:11:50;;;;;;;0.10;0.10;;;12.10;99.90;;;;;;5001324;28;20037;-79
2023/10/31 12:14:18;;;;;;;0.05;0.05;;;12.40;99.90;;;;;;4984136;28;20027;-77
2023/10/31 12:16:44;;;;;;;0.00;0.00;;;12.70;99.90;;;;;;4984151;28;20030;-78
2023/10/31 12:19:09;;;;;;;0.22;0.05;;;13.00;99.90;;;;;;4983419;28;20023;-78
2023/10/31 12:21:36;;;;;;;0.00;0.00;;;13.40;99.90;;;;;;4982472;28;20026;-77
2023/10/31 12:24:07;;;;;;;0.10;0.10;;;13.80;99.90;;;;;;5001629;28;20026;-78
2023/10/31 12:26:34;;;;;;;0.40;0.10;;;14.00;99.90;;;;;;4984050;28;20031;-78
2023/10/31 12:29:14;;;;;;;0.20;0.20;;;13.70;99.90;;;;;;4984413;28;20029;-78
2023/10/31 12:31:47;;;;;;;1.38;0.10;;;13.30;99.90;;;;;;4986494;28;20061;-77
2023/10/31 12:34:15;;;;;;;0.13;0.10;;;12.70;99.90;;;;;;4984867;28;20030;-79
2023/10/31 12:36:48;;;;;;;0.10;0.10;;;12.20;99.90;;;;;;4971024;28;20034;-78
2023/10/31 12:39:14;;;;;;;0.10;0.10;;;12.10;99.90;;;;;;4984753;28;20022;-78
2023/10/31 12:41:41;;;;;;;0.45;0.10;;;12.20;99.90;;;;;;4983513;28;20030;-78
2023/10/31 12:44:10;;;;;;;0.15;0.10;;;12.30;99.90;;;;;;5000531;28;20030;-79
2023/10/31 12:46:42;;;;;;;0.10;0.10;;;12.50;99.90;;;;;;4982485;28;20037;-78
2023/10/31 12:49:15;;;;;;;0.35;0.17;;;12.60;99.90;;;;;;4982654;28;20054;-78
2023/10/31 12:52:02;;;;;;;0.10;0.10;;;12.60;99.90;;;;;;4982864;28;20121;-78
2023/10/31 12:54:38;;;;;;;0.08;0.08;;;12.60;99.90;;;;;;4982161;28;20122;-78